sensor_id;sensor_type;location;lat;lon;timestamp;P1;durP1;ratioP1;P2;durP2;ratioP2
44139;SDS011;29803;51.048;4.686;2023-03-12T00:00:58;7.75;;;3.05;;
44139;SDS011;29803;51.048;4.686;2023-03-12T00:03:30;11.68;;;3.42;;
44139;SDS011;29803;51.048;4.686;2023-03-12T00:06:01;11.98;;;3.47;;
44139;SDS011;29803;51.048;4.686;2023-03-12T00:08:32;5.97;;;3.20;;
44139;SDS011;29803;51.048;4.686;2023-03-12T00:11:05;10.52;;;3.67;;
44139;SDS011;29803;51.048;4.686;2023-03-12T00:13:38;8.73;;;3.78;;
44139;SDS011;29803;51.048;4.686;2023-03-12T00:16:11;10.43;;;3.80;;
44139;SDS011;29803;51.048;4.686;2023-03-12T00:18:45;9.33;;;3.53;;
44139;SDS011;29803;51.048;4.686;2023-03-12T00:21:17;11.32;;;4.38;;
44139;SDS011;29803;51.048;4.686;2023-03-12T00:23:50;9.77;;;4.82;;
44139;SDS011;29803;51.048;4.686;2023-03-12T00:26:21;14.60;;;4.47;;
44139;SDS011;29803;51.048;4.686;2023-03-12T00:28:52;13.13;;;5.22;;
44139;SDS011;29803;51.048;4.686;2023-03-12T00:31:25;9.23;;;4.18;;
44139;SDS011;29803;51.048;4.686;2023-03-12T00:33:58;11.88;;;4.95;;
44139;SDS011;29803;51.048;4.686;2023-03-12T00:36:30;11.40;;;4.60;;
44139;SDS011;29803;51.048;4.686;2023-03-12T00:39:02;11.07;;;4.50;;
44139;SDS011;29803;51.048;4.686;2023-03-12T00:41:32;10.75;;;5.43;;
44139;SDS011;29803;51.048;4.686;2023-03-12T00:44:03;17.48;;;5.53;;
44139;SDS011;29803;51.048;4.686;2023-03-12T00:46:34;11.43;;;4.70;;
44139;SDS011;29803;51.048;4.686;2023-03-12T00:49:04;14.63;;;5.35;;
44139;SDS011;29803;51.048;4.686;2023-03-12T00:51:35;15.52;;;5.32;;
44139;SDS011;29803;51.048;4.686;2023-03-12T00:54:05;13.38;;;5.00;;
44139;SDS011;29803;51.048;4.686;2023-03-12T00:56:36;11.73;;;4.80;;
44139;SDS011;29803;51.048;4.686;2023-03-12T00:59:06;9.80;;;5.03;;
44139;SDS011;29803;51.048;4.686;2023-03-12T01:01:36;14.98;;;5.25;;
44139;SDS011;29803;51.048;4.686;2023-03-12T01:04:07;13.88;;;5.00;;
44139;SDS011;29803;51.048;4.686;2023-03-12T01:06:37;16.25;;;5.13;;
44139;SDS011;29803;51.048;4.686;2023-03-12T01:09:09;10.30;;;4.45;;
44139;SDS011;29803;51.048;4.686;2023-03-12T01:11:39;16.73;;;5.53;;
44139;SDS011;29803;51.048;4.686;2023-03-12T01:14:10;16.33;;;5.90;;
44139;SDS011;29803;51.048;4.686;2023-03-12T01:16:40;14.30;;;6.13;;
44139;SDS011;29803;51.048;4.686;2023-03-12T01:19:11;14.77;;;5.10;;
44139;SDS011;29803;51.048;4.686;2023-03-12T01:21:41;14.20;;;4.85;;
44139;SDS011;29803;51.048;4.686;2023-03-12T01:24:12;16.02;;;4.65;;
44139;SDS011;29803;51.048;4.686;2023-03-12T01:26:42;12.82;;;4.78;;
44139;SDS011;29803;51.048;4.686;2023-03-12T01:29:13;24.45;;;6.05;;
44139;SDS011;29803;51.048;4.686;2023-03-12T01:31:43;9.25;;;4.68;;
44139;SDS011;29803;51.048;4.686;2023-03-12T01:34:14;13.85;;;4.82;;
44139;SDS011;29803;51.048;4.686;2023-03-12T01:36:44;17.27;;;4.65;;
44139;SDS011;29803;51.048;4.686;2023-03-12T01:39:16;13.60;;;4.80;;
44139;SDS011;29803;51.048;4.686;2023-03-12T01:41:47;16.50;;;4.63;;
44139;SDS011;29803;51.048;4.686;2023-03-12T01:44:17;9.52;;;4.45;;
44139;SDS011;29803;51.048;4.686;2023-03-12T01:46:48;19.08;;;4.85;;
44139;SDS011;29803;51.048;4.686;2023-03-12T01:52:09;14.80;;;4.57;;
44139;SDS011;29803;51.048;4.686;2023-03-12T01:57:21;10.32;;;3.97;;
44139;SDS011;29803;51.048;4.686;2023-03-12T01:59:56;15.27;;;5.45;;
44139;SDS011;29803;51.048;4.686;2023-03-12T02:02:33;13.85;;;5.13;;
44139;SDS011;29803;51.048;4.686;2023-03-12T02:08:13;12.32;;;3.83;;
44139;SDS011;29803;51.048;4.686;2023-03-12T02:10:45;10.77;;;4.00;;
44139;SDS011;29803;51.048;4.686;2023-03-12T02:13:16;11.82;;;3.70;;
44139;SDS011;29803;51.048;4.686;2023-03-12T02:15:48;12.10;;;3.83;;
44139;SDS011;29803;51.048;4.686;2023-03-12T02:18:18;12.13;;;4.40;;
44139;SDS011;29803;51.048;4.686;2023-03-12T02:20:54;11.50;;;3.83;;
44139;SDS011;29803;51.048;4.686;2023-03-12T02:26:24;13.68;;;4.18;;
44139;SDS011;29803;51.048;4.686;2023-03-12T02:28:57;11.30;;;3.60;;
44139;SDS011;29803;51.048;4.686;2023-03-12T02:31:32;11.55;;;3.72;;
44139;SDS011;29803;51.048;4.686;2023-03-12T02:34:07;9.85;;;3.97;;
44139;SDS011;29803;51.048;4.686;2023-03-12T02:36:38;9.07;;;3.47;;
44139;SDS011;29803;51.048;4.686;2023-03-12T02:39:09;15.70;;;3.70;;
44139;SDS011;29803;51.048;4.686;2023-03-12T02:41:43;13.70;;;3.63;;
44139;SDS011;29803;51.048;4.686;2023-03-12T02:44:19;12.38;;;4.45;;
44139;SDS011;29803;51.048;4.686;2023-03-12T02:46:53;9.48;;;3.85;;
44139;SDS011;29803;51.048;4.686;2023-03-12T02:49:32;8.02;;;3.30;;
44139;SDS011;29803;51.048;4.686;2023-03-12T02:52:03;11.70;;;3.75;;
44139;SDS011;29803;51.048;4.686;2023-03-12T02:54:50;8.45;;;3.15;;
44139;SDS011;29803;51.048;4.686;2023-03-12T02:57:20;13.45;;;3.08;;
44139;SDS011;29803;51.048;4.686;2023-03-12T02:59:58;11.00;;;3.67;;
44139;SDS011;29803;51.048;4.686;2023-03-12T03:02:28;12.85;;;3.70;;
44139;SDS011;29803;51.048;4.686;2023-03-12T03:04:59;7.85;;;3.25;;
44139;SDS011;29803;51.048;4.686;2023-03-12T03:07:29;7.75;;;3.47;;
44139;SDS011;29803;51.048;4.686;2023-03-12T03:10:00;10.00;;;2.97;;
44139;SDS011;29803;51.048;4.686;2023-03-12T03:12:34;10.57;;;3.92;;
44139;SDS011;29803;51.048;4.686;2023-03-12T03:15:06;7.40;;;3.38;;
44139;SDS011;29803;51.048;4.686;2023-03-12T03:17:37;12.60;;;3.33;;
44139;SDS011;29803;51.048;4.686;2023-03-12T03:20:08;19.98;;;3.40;;
44139;SDS011;29803;51.048;4.686;2023-03-12T03:22:52;7.88;;;3.45;;
44139;SDS011;29803;51.048;4.686;2023-03-12T03:25:22;9.68;;;3.78;;
44139;SDS011;29803;51.048;4.686;2023-03-12T03:27:53;10.57;;;2.95;;
44139;SDS011;29803;51.048;4.686;2023-03-12T03:30:24;8.55;;;3.25;;
44139;SDS011;29803;51.048;4.686;2023-03-12T03:32:55;7.25;;;3.40;;
44139;SDS011;29803;51.048;4.686;2023-03-12T03:35:25;11.55;;;3.72;;
44139;SDS011;29803;51.048;4.686;2023-03-12T03:37:56;11.23;;;4.65;;
44139;SDS011;29803;51.048;4.686;2023-03-12T03:40:26;19.42;;;3.63;;
44139;SDS011;29803;51.048;4.686;2023-03-12T03:42:57;10.95;;;3.28;;
44139;SDS011;29803;51.048;4.686;2023-03-12T03:45:27;11.10;;;4.03;;
44139;SDS011;29803;51.048;4.686;2023-03-12T03:47:58;10.95;;;3.78;;
44139;SDS011;29803;51.048;4.686;2023-03-12T03:50:28;17.35;;;4.32;;
44139;SDS011;29803;51.048;4.686;2023-03-12T03:52:58;10.40;;;3.67;;
44139;SDS011;29803;51.048;4.686;2023-03-12T03:55:29;12.45;;;3.78;;
44139;SDS011;29803;51.048;4.686;2023-03-12T03:57:59;12.82;;;3.70;;
44139;SDS011;29803;51.048;4.686;2023-03-12T04:00:30;10.68;;;4.28;;
44139;SDS011;29803;51.048;4.686;2023-03-12T04:03:01;10.13;;;3.30;;
44139;SDS011;29803;51.048;4.686;2023-03-12T04:05:31;13.43;;;3.55;;
44139;SDS011;29803;51.048;4.686;2023-03-12T04:08:02;8.40;;;3.50;;
44139;SDS011;29803;51.048;4.686;2023-03-12T04:10:33;10.90;;;3.15;;
44139;SDS011;29803;51.048;4.686;2023-03-12T04:13:03;11.95;;;3.20;;
44139;SDS011;29803;51.048;4.686;2023-03-12T04:15:34;8.52;;;3.08;;
44139;SDS011;29803;51.048;4.686;2023-03-12T04:18:04;6.55;;;3.03;;
44139;SDS011;29803;51.048;4.686;2023-03-12T04:20:35;7.63;;;3.47;;
44139;SDS011;29803;51.048;4.686;2023-03-12T04:23:05;9.80;;;3.08;;
44139;SDS011;29803;51.048;4.686;2023-03-12T04:25:37;16.00;;;3.55;;
44139;SDS011;29803;51.048;4.686;2023-03-12T04:28:08;9.13;;;3.28;;
44139;SDS011;29803;51.048;4.686;2023-03-12T04:30:38;9.38;;;3.30;;
44139;SDS011;29803;51.048;4.686;2023-03-12T04:33:09;7.93;;;3.30;;
44139;SDS011;29803;51.048;4.686;2023-03-12T04:35:39;9.23;;;3.22;;
44139;SDS011;29803;51.048;4.686;2023-03-12T04:38:20;6.15;;;3.45;;
44139;SDS011;29803;51.048;4.686;2023-03-12T04:43:35;16.90;;;4.07;;
44139;SDS011;29803;51.048;4.686;2023-03-12T04:46:05;12.70;;;3.50;;
44139;SDS011;29803;51.048;4.686;2023-03-12T04:48:37;8.77;;;3.25;;
44139;SDS011;29803;51.048;4.686;2023-03-12T04:51:07;9.50;;;3.40;;
44139;SDS011;29803;51.048;4.686;2023-03-12T04:53:38;11.93;;;3.80;;
44139;SDS011;29803;51.048;4.686;2023-03-12T04:56:09;12.93;;;3.70;;
44139;SDS011;29803;51.048;4.686;2023-03-12T04:58:40;9.60;;;4.20;;
44139;SDS011;29803;51.048;4.686;2023-03-12T05:01:15;13.00;;;4.03;;
44139;SDS011;29803;51.048;4.686;2023-03-12T05:03:52;10.88;;;3.92;;
44139;SDS011;29803;51.048;4.686;2023-03-12T05:06:23;12.38;;;3.88;;
44139;SDS011;29803;51.048;4.686;2023-03-12T05:08:55;8.43;;;3.80;;
44139;SDS011;29803;51.048;4.686;2023-03-12T05:11:25;12.18;;;3.80;;
44139;SDS011;29803;51.048;4.686;2023-03-12T05:13:56;13.15;;;4.93;;
44139;SDS011;29803;51.048;4.686;2023-03-12T05:16:26;14.63;;;4.40;;
44139;SDS011;29803;51.048;4.686;2023-03-12T05:18:57;10.32;;;3.47;;
44139;SDS011;29803;51.048;4.686;2023-03-12T05:21:27;10.68;;;4.10;;
44139;SDS011;29803;51.048;4.686;2023-03-12T05:23:58;14.98;;;5.18;;
44139;SDS011;29803;51.048;4.686;2023-03-12T05:26:30;13.85;;;4.40;;
44139;SDS011;29803;51.048;4.686;2023-03-12T05:29:02;17.20;;;4.95;;
44139;SDS011;29803;51.048;4.686;2023-03-12T05:31:34;15.32;;;4.13;;
44139;SDS011;29803;51.048;4.686;2023-03-12T05:34:05;12.68;;;4.43;;
44139;SDS011;29803;51.048;4.686;2023-03-12T05:36:36;10.73;;;3.90;;
44139;SDS011;29803;51.048;4.686;2023-03-12T05:39:06;9.55;;;4.30;;
44139;SDS011;29803;51.048;4.686;2023-03-12T05:41:36;17.77;;;4.70;;
44139;SDS011;29803;51.048;4.686;2023-03-12T05:44:08;12.63;;;4.75;;
44139;SDS011;29803;51.048;4.686;2023-03-12T05:46:41;12.70;;;4.65;;
44139;SDS011;29803;51.048;4.686;2023-03-12T05:49:12;12.80;;;4.38;;
44139;SDS011;29803;51.048;4.686;2023-03-12T05:51:43;10.60;;;4.85;;
44139;SDS011;29803;51.048;4.686;2023-03-12T05:54:14;15.13;;;5.85;;
44139;SDS011;29803;51.048;4.686;2023-03-12T05:56:45;10.38;;;4.85;;
44139;SDS011;29803;51.048;4.686;2023-03-12T05:59:15;11.90;;;5.05;;
44139;SDS011;29803;51.048;4.686;2023-03-12T06:01:46;14.60;;;5.72;;
44139;SDS011;29803;51.048;4.686;2023-03-12T06:04:16;13.43;;;6.40;;
44139;SDS011;29803;51.048;4.686;2023-03-12T06:06:47;19.40;;;7.35;;
44139;SDS011;29803;51.048;4.686;2023-03-12T06:09:17;12.75;;;6.03;;
44139;SDS011;29803;51.048;4.686;2023-03-12T06:11:48;16.08;;;6.75;;
44139;SDS011;29803;51.048;4.686;2023-03-12T06:14:18;19.60;;;7.50;;
44139;SDS011;29803;51.048;4.686;2023-03-12T06:16:49;19.35;;;8.45;;
44139;SDS011;29803;51.048;4.686;2023-03-12T06:19:19;18.48;;;7.90;;
44139;SDS011;29803;51.048;4.686;2023-03-12T06:21:49;18.27;;;7.40;;
44139;SDS011;29803;51.048;4.686;2023-03-12T06:24:20;23.65;;;8.70;;
44139;SDS011;29803;51.048;4.686;2023-03-12T06:26:50;22.40;;;8.27;;
44139;SDS011;29803;51.048;4.686;2023-03-12T06:29:21;26.70;;;9.43;;
44139;SDS011;29803;51.048;4.686;2023-03-12T06:31:51;16.90;;;9.48;;
44139;SDS011;29803;51.048;4.686;2023-03-12T06:34:22;29.63;;;10.07;;
44139;SDS011;29803;51.048;4.686;2023-03-12T06:36:52;23.83;;;10.98;;
44139;SDS011;29803;51.048;4.686;2023-03-12T06:39:23;30.15;;;12.38;;
44139;SDS011;29803;51.048;4.686;2023-03-12T06:41:54;31.50;;;12.85;;
44139;SDS011;29803;51.048;4.686;2023-03-12T06:44:25;34.15;;;13.77;;
44139;SDS011;29803;51.048;4.686;2023-03-12T06:46:55;28.05;;;12.52;;
44139;SDS011;29803;51.048;4.686;2023-03-12T06:49:26;28.25;;;12.63;;
44139;SDS011;29803;51.048;4.686;2023-03-12T06:52:01;31.83;;;13.55;;
44139;SDS011;29803;51.048;4.686;2023-03-12T06:54:31;36.08;;;13.90;;
44139;SDS011;29803;51.048;4.686;2023-03-12T06:57:02;30.42;;;14.50;;
44139;SDS011;29803;51.048;4.686;2023-03-12T06:59:32;40.97;;;15.30;;
44139;SDS011;29803;51.048;4.686;2023-03-12T07:02:03;38.20;;;15.75;;
44139;SDS011;29803;51.048;4.686;2023-03-12T07:04:34;38.75;;;16.05;;
44139;SDS011;29803;51.048;4.686;2023-03-12T07:07:04;44.85;;;18.00;;
44139;SDS011;29803;51.048;4.686;2023-03-12T07:09:37;46.25;;;18.33;;
44139;SDS011;29803;51.048;4.686;2023-03-12T07:12:08;42.15;;;17.85;;
44139;SDS011;29803;51.048;4.686;2023-03-12T07:14:38;55.85;;;18.73;;
44139;SDS011;29803;51.048;4.686;2023-03-12T07:17:09;48.40;;;19.67;;
44139;SDS011;29803;51.048;4.686;2023-03-12T07:19:39;46.67;;;18.77;;
44139;SDS011;29803;51.048;4.686;2023-03-12T07:22:10;46.83;;;19.95;;
44139;SDS011;29803;51.048;4.686;2023-03-12T07:24:40;46.67;;;18.38;;
44139;SDS011;29803;51.048;4.686;2023-03-12T07:27:10;55.03;;;20.70;;
44139;SDS011;29803;51.048;4.686;2023-03-12T07:29:41;50.88;;;19.75;;
44139;SDS011;29803;51.048;4.686;2023-03-12T07:32:12;56.65;;;20.48;;
44139;SDS011;29803;51.048;4.686;2023-03-12T07:34:42;50.92;;;20.35;;
44139;SDS011;29803;51.048;4.686;2023-03-12T07:37:13;54.30;;;21.02;;
44139;SDS011;29803;51.048;4.686;2023-03-12T07:39:43;51.30;;;19.52;;
44139;SDS011;29803;51.048;4.686;2023-03-12T07:42:14;55.00;;;19.75;;
44139;SDS011;29803;51.048;4.686;2023-03-12T07:44:44;53.50;;;19.73;;
44139;SDS011;29803;51.048;4.686;2023-03-12T07:47:15;56.30;;;18.20;;
44139;SDS011;29803;51.048;4.686;2023-03-12T07:49:45;45.70;;;19.92;;
44139;SDS011;29803;51.048;4.686;2023-03-12T07:52:16;46.15;;;19.02;;
44139;SDS011;29803;51.048;4.686;2023-03-12T07:54:47;46.03;;;20.13;;
44139;SDS011;29803;51.048;4.686;2023-03-12T07:57:17;52.63;;;19.20;;
44139;SDS011;29803;51.048;4.686;2023-03-12T07:59:48;62.35;;;20.70;;
44139;SDS011;29803;51.048;4.686;2023-03-12T08:02:18;64.75;;;20.27;;
44139;SDS011;29803;51.048;4.686;2023-03-12T08:04:49;55.25;;;19.65;;
44139;SDS011;29803;51.048;4.686;2023-03-12T08:07:20;50.97;;;19.27;;
44139;SDS011;29803;51.048;4.686;2023-03-12T08:09:50;44.42;;;17.50;;
44139;SDS011;29803;51.048;4.686;2023-03-12T08:12:21;53.38;;;18.48;;
44139;SDS011;29803;51.048;4.686;2023-03-12T08:14:51;62.47;;;17.77;;
44139;SDS011;29803;51.048;4.686;2023-03-12T08:17:22;237.23;;;86.20;;
44139;SDS011;29803;51.048;4.686;2023-03-12T08:19:52;104.97;;;44.03;;
44139;SDS011;29803;51.048;4.686;2023-03-12T08:22:23;66.22;;;19.52;;
44139;SDS011;29803;51.048;4.686;2023-03-12T08:24:53;59.45;;;21.13;;
44139;SDS011;29803;51.048;4.686;2023-03-12T08:27:24;60.85;;;21.20;;
44139;SDS011;29803;51.048;4.686;2023-03-12T08:29:54;70.75;;;19.27;;
44139;SDS011;29803;51.048;4.686;2023-03-12T08:32:25;68.72;;;18.08;;
44139;SDS011;29803;51.048;4.686;2023-03-12T08:34:55;67.55;;;19.75;;
44139;SDS011;29803;51.048;4.686;2023-03-12T08:37:26;60.20;;;19.17;;
44139;SDS011;29803;51.048;4.686;2023-03-12T08:39:57;74.32;;;19.23;;
44139;SDS011;29803;51.048;4.686;2023-03-12T08:42:28;64.88;;;17.35;;
44139;SDS011;29803;51.048;4.686;2023-03-12T08:44:59;65.90;;;17.40;;
44139;SDS011;29803;51.048;4.686;2023-03-12T08:47:29;65.70;;;16.05;;
44139;SDS011;29803;51.048;4.686;2023-03-12T08:50:00;80.85;;;16.30;;
44139;SDS011;29803;51.048;4.686;2023-03-12T08:52:30;67.97;;;16.33;;
44139;SDS011;29803;51.048;4.686;2023-03-12T08:55:01;74.72;;;17.63;;
44139;SDS011;29803;51.048;4.686;2023-03-12T08:57:34;70.00;;;15.35;;
44139;SDS011;29803;51.048;4.686;2023-03-12T09:00:05;63.55;;;14.23;;
44139;SDS011;29803;51.048;4.686;2023-03-12T09:05:29;60.83;;;12.73;;
44139;SDS011;29803;51.048;4.686;2023-03-12T09:08:00;64.20;;;13.25;;
44139;SDS011;29803;51.048;4.686;2023-03-12T09:10:30;60.55;;;12.30;;
44139;SDS011;29803;51.048;4.686;2023-03-12T09:13:01;45.17;;;12.57;;
44139;SDS011;29803;51.048;4.686;2023-03-12T09:15:32;50.03;;;14.00;;
44139;SDS011;29803;51.048;4.686;2023-03-12T09:18:03;71.07;;;12.77;;
44139;SDS011;29803;51.048;4.686;2023-03-12T09:20:33;47.13;;;12.27;;
44139;SDS011;29803;51.048;4.686;2023-03-12T09:23:04;54.47;;;11.95;;
44139;SDS011;29803;51.048;4.686;2023-03-12T09:25:34;47.35;;;10.50;;
44139;SDS011;29803;51.048;4.686;2023-03-12T09:28:04;65.28;;;10.65;;
44139;SDS011;29803;51.048;4.686;2023-03-12T09:30:35;53.65;;;8.82;;
44139;SDS011;29803;51.048;4.686;2023-03-12T09:33:05;44.58;;;10.20;;
44139;SDS011;29803;51.048;4.686;2023-03-12T09:35:36;62.53;;;10.65;;
44139;SDS011;29803;51.048;4.686;2023-03-12T09:38:06;89.35;;;27.63;;
44139;SDS011;29803;51.048;4.686;2023-03-12T09:40:37;122.57;;;45.63;;
44139;SDS011;29803;51.048;4.686;2023-03-12T09:43:10;62.83;;;12.43;;
44139;SDS011;29803;51.048;4.686;2023-03-12T09:45:49;44.35;;;10.15;;
44139;SDS011;29803;51.048;4.686;2023-03-12T09:48:34;53.15;;;10.10;;
44139;SDS011;29803;51.048;4.686;2023-03-12T09:51:13;37.08;;;9.82;;
44139;SDS011;29803;51.048;4.686;2023-03-12T09:53:51;46.20;;;8.75;;
44139;SDS011;29803;51.048;4.686;2023-03-12T09:56:25;48.53;;;8.85;;
44139;SDS011;29803;51.048;4.686;2023-03-12T09:58:56;60.10;;;13.13;;
44139;SDS011;29803;51.048;4.686;2023-03-12T10:13:01;38.33;;;7.22;;
44139;SDS011;29803;51.048;4.686;2023-03-12T10:15:37;44.42;;;7.55;;
44139;SDS011;29803;51.048;4.686;2023-03-12T10:24:48;49.85;;;8.75;;
44139;SDS011;29803;51.048;4.686;2023-03-12T10:27:28;41.15;;;10.18;;
44139;SDS011;29803;51.048;4.686;2023-03-12T10:30:12;45.40;;;8.93;;
44139;SDS011;29803;51.048;4.686;2023-03-12T10:32:59;48.38;;;7.53;;
44139;SDS011;29803;51.048;4.686;2023-03-12T10:35:33;41.00;;;6.63;;
44139;SDS011;29803;51.048;4.686;2023-03-12T10:38:03;40.95;;;6.93;;
44139;SDS011;29803;51.048;4.686;2023-03-12T10:40:39;39.08;;;6.03;;
44139;SDS011;29803;51.048;4.686;2023-03-12T10:43:10;44.20;;;8.20;;
44139;SDS011;29803;51.048;4.686;2023-03-12T10:45:43;35.13;;;7.07;;
44139;SDS011;29803;51.048;4.686;2023-03-12T10:51:07;38.10;;;7.25;;
44139;SDS011;29803;51.048;4.686;2023-03-12T10:53:40;39.65;;;8.00;;
44139;SDS011;29803;51.048;4.686;2023-03-12T10:56:15;45.95;;;7.22;;
44139;SDS011;29803;51.048;4.686;2023-03-12T10:58:48;39.83;;;8.65;;
44139;SDS011;29803;51.048;4.686;2023-03-12T11:01:21;45.85;;;7.43;;
44139;SDS011;29803;51.048;4.686;2023-03-12T11:04:07;48.05;;;9.95;;
44139;SDS011;29803;51.048;4.686;2023-03-12T11:09:33;42.88;;;9.48;;
44139;SDS011;29803;51.048;4.686;2023-03-12T11:12:21;43.42;;;7.68;;
44139;SDS011;29803;51.048;4.686;2023-03-12T11:14:53;52.88;;;8.98;;
44139;SDS011;29803;51.048;4.686;2023-03-12T11:17:25;42.63;;;8.63;;
44139;SDS011;29803;51.048;4.686;2023-03-12T11:19:57;50.08;;;8.50;;
44139;SDS011;29803;51.048;4.686;2023-03-12T11:22:29;50.25;;;9.52;;
44139;SDS011;29803;51.048;4.686;2023-03-12T11:25:03;57.38;;;18.50;;
44139;SDS011;29803;51.048;4.686;2023-03-12T11:30:30;41.63;;;8.05;;
44139;SDS011;29803;51.048;4.686;2023-03-12T11:33:07;42.78;;;7.90;;
44139;SDS011;29803;51.048;4.686;2023-03-12T11:38:40;36.95;;;6.28;;
44139;SDS011;29803;51.048;4.686;2023-03-12T11:44:19;39.00;;;6.88;;
44139;SDS011;29803;51.048;4.686;2023-03-12T11:47:00;31.70;;;6.30;;
44139;SDS011;29803;51.048;4.686;2023-03-12T11:53:05;44.42;;;7.10;;
44139;SDS011;29803;51.048;4.686;2023-03-12T12:04:19;48.40;;;7.43;;
44139;SDS011;29803;51.048;4.686;2023-03-12T12:15:45;36.55;;;6.43;;
44139;SDS011;29803;51.048;4.686;2023-03-12T12:18:39;43.95;;;7.82;;
44139;SDS011;29803;51.048;4.686;2023-03-12T12:26:44;36.28;;;7.03;;
44139;SDS011;29803;51.048;4.686;2023-03-12T12:29:28;51.45;;;8.13;;
44139;SDS011;29803;51.048;4.686;2023-03-12T12:32:11;35.63;;;7.13;;
44139;SDS011;29803;51.048;4.686;2023-03-12T12:34:51;46.72;;;6.97;;
44139;SDS011;29803;51.048;4.686;2023-03-12T12:37:47;59.75;;;7.28;;
44139;SDS011;29803;51.048;4.686;2023-03-12T12:40:35;47.00;;;7.45;;
44139;SDS011;29803;51.048;4.686;2023-03-12T12:45:58;45.63;;;8.93;;
44139;SDS011;29803;51.048;4.686;2023-03-12T12:48:35;48.00;;;6.85;;
44139;SDS011;29803;51.048;4.686;2023-03-12T12:51:10;37.08;;;6.80;;
44139;SDS011;29803;51.048;4.686;2023-03-12T13:02:20;52.95;;;8.05;;
44139;SDS011;29803;51.048;4.686;2023-03-12T13:04:56;30.00;;;5.47;;
44139;SDS011;29803;51.048;4.686;2023-03-12T13:07:29;36.45;;;5.47;;
44139;SDS011;29803;51.048;4.686;2023-03-12T13:18:02;36.22;;;4.90;;
44139;SDS011;29803;51.048;4.686;2023-03-12T13:26:30;32.90;;;6.15;;
44139;SDS011;29803;51.048;4.686;2023-03-12T13:43:31;39.42;;;5.95;;
44139;SDS011;29803;51.048;4.686;2023-03-12T13:48:58;40.70;;;6.35;;
44139;SDS011;29803;51.048;4.686;2023-03-12T13:51:32;32.45;;;6.10;;
44139;SDS011;29803;51.048;4.686;2023-03-12T13:54:15;42.83;;;6.55;;
44139;SDS011;29803;51.048;4.686;2023-03-12T13:57:01;33.47;;;6.85;;
44139;SDS011;29803;51.048;4.686;2023-03-12T13:59:33;50.50;;;7.55;;
44139;SDS011;29803;51.048;4.686;2023-03-12T14:02:07;48.55;;;6.53;;
44139;SDS011;29803;51.048;4.686;2023-03-12T14:04:49;41.67;;;5.97;;
44139;SDS011;29803;51.048;4.686;2023-03-12T14:07:35;33.35;;;5.57;;
44139;SDS011;29803;51.048;4.686;2023-03-12T14:15:45;31.77;;;5.53;;
44139;SDS011;29803;51.048;4.686;2023-03-12T14:18:26;155.35;;;42.47;;
44139;SDS011;29803;51.048;4.686;2023-03-12T14:21:00;38.53;;;7.38;;
44139;SDS011;29803;51.048;4.686;2023-03-12T14:23:37;86.10;;;18.77;;
44139;SDS011;29803;51.048;4.686;2023-03-12T14:26:16;74.88;;;15.20;;
44139;SDS011;29803;51.048;4.686;2023-03-12T14:28:55;55.20;;;10.20;;
44139;SDS011;29803;51.048;4.686;2023-03-12T14:31:29;102.10;;;33.75;;
44139;SDS011;29803;51.048;4.686;2023-03-12T14:34:03;41.08;;;6.55;;
44139;SDS011;29803;51.048;4.686;2023-03-12T14:36:39;46.47;;;5.78;;
44139;SDS011;29803;51.048;4.686;2023-03-12T14:42:08;39.33;;;6.82;;
44139;SDS011;29803;51.048;4.686;2023-03-12T14:44:39;41.15;;;6.70;;
44139;SDS011;29803;51.048;4.686;2023-03-12T14:47:23;42.30;;;6.35;;
44139;SDS011;29803;51.048;4.686;2023-03-12T14:49:54;39.75;;;6.60;;
44139;SDS011;29803;51.048;4.686;2023-03-12T14:52:27;26.05;;;5.85;;
44139;SDS011;29803;51.048;4.686;2023-03-12T14:55:00;39.13;;;6.30;;
44139;SDS011;29803;51.048;4.686;2023-03-12T14:57:34;39.83;;;5.97;;
44139;SDS011;29803;51.048;4.686;2023-03-12T15:00:04;43.40;;;6.28;;
44139;SDS011;29803;51.048;4.686;2023-03-12T15:02:43;35.28;;;6.75;;
44139;SDS011;29803;51.048;4.686;2023-03-12T15:05:15;31.58;;;6.68;;
44139;SDS011;29803;51.048;4.686;2023-03-12T15:07:47;36.25;;;5.57;;
44139;SDS011;29803;51.048;4.686;2023-03-12T15:13:05;30.83;;;6.05;;
44139;SDS011;29803;51.048;4.686;2023-03-12T15:15:43;42.08;;;5.97;;
44139;SDS011;29803;51.048;4.686;2023-03-12T15:18:18;30.40;;;5.90;;
44139;SDS011;29803;51.048;4.686;2023-03-12T15:20:52;32.72;;;5.75;;
44139;SDS011;29803;51.048;4.686;2023-03-12T15:23:27;36.40;;;5.17;;
44139;SDS011;29803;51.048;4.686;2023-03-12T15:26:12;30.92;;;5.30;;
44139;SDS011;29803;51.048;4.686;2023-03-12T15:28:53;36.65;;;6.15;;
44139;SDS011;29803;51.048;4.686;2023-03-12T15:31:43;49.83;;;6.85;;
44139;SDS011;29803;51.048;4.686;2023-03-12T15:34:28;36.60;;;7.07;;
44139;SDS011;29803;51.048;4.686;2023-03-12T15:37:03;35.47;;;6.00;;
44139;SDS011;29803;51.048;4.686;2023-03-12T15:39:50;32.10;;;5.28;;
44139;SDS011;29803;51.048;4.686;2023-03-12T15:42:23;33.42;;;5.35;;
44139;SDS011;29803;51.048;4.686;2023-03-12T15:44:56;173.82;;;60.08;;
44139;SDS011;29803;51.048;4.686;2023-03-12T15:47:29;39.28;;;8.63;;
44139;SDS011;29803;51.048;4.686;2023-03-12T15:50:04;39.92;;;8.18;;
44139;SDS011;29803;51.048;4.686;2023-03-12T15:52:46;41.58;;;12.25;;
44139;SDS011;29803;51.048;4.686;2023-03-12T15:55:31;35.25;;;5.40;;
44139;SDS011;29803;51.048;4.686;2023-03-12T15:58:22;35.25;;;7.85;;
44139;SDS011;29803;51.048;4.686;2023-03-12T16:03:57;31.20;;;6.25;;
44139;SDS011;29803;51.048;4.686;2023-03-12T16:06:28;25.42;;;5.20;;
44139;SDS011;29803;51.048;4.686;2023-03-12T16:08:59;35.13;;;5.85;;
44139;SDS011;29803;51.048;4.686;2023-03-12T16:11:35;43.40;;;7.28;;
44139;SDS011;29803;51.048;4.686;2023-03-12T16:14:11;31.87;;;5.40;;
44139;SDS011;29803;51.048;4.686;2023-03-12T16:16:45;31.98;;;4.78;;
44139;SDS011;29803;51.048;4.686;2023-03-12T16:19:16;41.35;;;6.53;;
44139;SDS011;29803;51.048;4.686;2023-03-12T16:21:49;35.95;;;5.97;;
44139;SDS011;29803;51.048;4.686;2023-03-12T16:24:20;27.90;;;5.20;;
44139;SDS011;29803;51.048;4.686;2023-03-12T16:26:52;41.00;;;5.18;;
44139;SDS011;29803;51.048;4.686;2023-03-12T16:29:28;34.30;;;5.53;;
44139;SDS011;29803;51.048;4.686;2023-03-12T16:32:08;25.95;;;4.60;;
44139;SDS011;29803;51.048;4.686;2023-03-12T16:34:41;32.65;;;5.97;;
44139;SDS011;29803;51.048;4.686;2023-03-12T16:37:12;33.35;;;5.43;;
44139;SDS011;29803;51.048;4.686;2023-03-12T16:39:43;39.08;;;6.00;;
44139;SDS011;29803;51.048;4.686;2023-03-12T16:42:16;34.97;;;5.43;;
44139;SDS011;29803;51.048;4.686;2023-03-12T16:44:47;39.63;;;5.90;;
44139;SDS011;29803;51.048;4.686;2023-03-12T16:47:18;42.35;;;6.25;;
44139;SDS011;29803;51.048;4.686;2023-03-12T16:49:48;33.97;;;5.38;;
44139;SDS011;29803;51.048;4.686;2023-03-12T16:52:20;35.78;;;5.75;;
44139;SDS011;29803;51.048;4.686;2023-03-12T16:54:52;32.20;;;5.38;;
44139;SDS011;29803;51.048;4.686;2023-03-12T16:59:58;32.88;;;7.43;;
44139;SDS011;29803;51.048;4.686;2023-03-12T17:02:30;38.90;;;6.85;;
44139;SDS011;29803;51.048;4.686;2023-03-12T17:05:01;56.65;;;18.27;;
44139;SDS011;29803;51.048;4.686;2023-03-12T17:07:32;39.40;;;6.28;;
44139;SDS011;29803;51.048;4.686;2023-03-12T17:10:03;28.23;;;6.25;;
44139;SDS011;29803;51.048;4.686;2023-03-12T17:12:37;40.38;;;6.50;;
44139;SDS011;29803;51.048;4.686;2023-03-12T17:15:12;34.58;;;6.57;;
44139;SDS011;29803;51.048;4.686;2023-03-12T17:17:49;44.20;;;11.40;;
44139;SDS011;29803;51.048;4.686;2023-03-12T17:20:20;41.63;;;5.78;;
44139;SDS011;29803;51.048;4.686;2023-03-12T17:22:51;34.25;;;5.60;;